• Join FlightAware (Why Join?)
  • Login
  • US Flag 
07:57PM EDT


 

Airport Tracker/Info


-or-


 

Live Flight TrackerFlight Track Log ✈ ASQ4680 ✈ 03-May-2012 ✈ KIAH - KBTR

Flight Track Log - Related Links

Times and Time Zones

All times are in EDT time to prevent confusion due to time zone crossing. See the ASQ4680 flight status page for this flight to view local times or setup timezone preferences in your user account.

Time Position Orientation Groundspeed Altitude Reporting Facility
EDT Latitude Longitude Course Direction KTS MPH feet Rate Location/Type
03:28PM 29.9561 -95.3431 133° Southeast 167 192 900  Level Houston Center
03:29PM 29.9239 -95.3036 134° Southeast 214 246 2,300 1,500 Climbing Houston Center
03:30PM 29.8650 -95.2344 124° Southeast 258 297 4,100 1,920 Climbing Houston Center
03:31PM 29.8250 -95.1661 100° East 272 313 6,600 2,220 Climbing Houston Center
03:32PM 29.8125 -95.0867 70° East 269 310 8,500 1,740 Climbing Houston Center
03:33PM 29.8397 -94.9992 68° East 282 325 10,200 1,140 Climbing Houston Center
03:34PM 29.8689 -94.9161 68° East 332 382 10,800 720 Climbing Houston Center
03:35PM 29.9092 -94.8025 68° East 345 397 11,700 900 Climbing Houston Center
03:36PM 29.9469 -94.6958 68° East 351 404 12,800 1,080 Climbing Houston Center
03:37PM 29.9850 -94.5842 87° East 357 411 13,900 1,020 Climbing Houston Center
03:38PM 29.9897 -94.4644 88° East 363 418 14,900 1,020 Climbing Houston Center
03:39PM 29.9942 -94.3400 83° East 375 432 16,000 1,020 Climbing Houston Center
03:40PM 30.0072 -94.2131 82° East 388 447 17,000 1,020 Climbing Houston Center
03:41PM 30.0219 -94.0864 81° East 388 447 18,100 1,020 Climbing Houston Center
03:42PM 30.0389 -93.9572 81° East 393 452 19,100 960 Climbing Houston Center
03:43PM 30.0556 -93.8281 84° East 398 458 20,100 1,020 Climbing Houston Center
03:44PM 30.0681 -93.6964 82° East 405 466 21,200 1,020 Climbing Houston Center
03:45PM 30.0844 -93.5622 81° East 413 475 22,200 720 Climbing Houston Center
03:47PM 30.1056 -93.4017 83° East 418 481 22,900 360 Climbing Houston Center
03:48PM 30.1197 -93.2747 82° East 430 495 23,000  Climbing Houston Center
03:49PM 30.1381 -93.1286 78° East 446 513 23,000  Level Houston Center
03:50PM 30.1644 -92.9800 77° East 456 525 23,000  Level Houston Center
03:51PM 30.1931 -92.8386 77° East 456 525 23,000  Level Houston Center
03:52PM 30.2214 -92.6969 77° East 450 518 23,000  Level Houston Center
03:53PM 30.2494 -92.5531 77° East 450 518 23,000  Level Houston Center
03:54PM 30.2775 -92.4139 80° East 450 518 23,000  Level Houston Center
03:55PM 30.3011 -92.2600 77° East 445 512 23,000 -600 Level Houston Center
03:56PM 30.3289 -92.1158 76° East 455 524 21,800 -1,500 Descending Houston Center
03:57PM 30.3586 -91.9739 78° East 455 524 20,100 -1,920 Descending Houston Center
03:58PM 30.3839 -91.8369 77° East 447 514 18,000 -2,400 Descending Houston Center
03:59PM 30.4069 -91.7189 78° East 420 483 15,300 -2,940 Descending Houston Center
04:00PM 30.4297 -91.5961 55° Northeast 405 466 12,200 -2,400 Descending Houston Center
04:01PM 30.4881 -91.4997 43° Northeast 348 400 10,500 -1,800 Descending Houston Center
04:02PM 30.5486 -91.4344 44° Northeast 314 361 8,700 -2,280 Descending Houston Center
04:03PM 30.5964 -91.3811 44° Northeast 282 325 6,000 -2,280 Descending Houston Center
04:04PM 30.6569 -91.3133 132° Southeast 275 316 4,200 -1,800 Descending Houston Center
04:18PM 30.5167 -91.1333 319° Northwest  Level FlightAware Approximate
04:19PM 30.5913 -91.2094 139° Southeast  Level Estimated
04:20PM 30.5167 -91.1333 319° Northwest  Level FlightAware Approximate
04:21PM 30.5913 -91.2094 139° Southeast  Level Estimated
04:22PM 30.5167 -91.1333 319° Northwest  Level FlightAware Approximate
04:23PM 30.5913 -91.2094 139° Southeast  Level Estimated
04:24PM 30.5167 -91.1333 319° Northwest  Level FlightAware Approximate
04:25PM 30.5913 -91.2094 319° Northwest  Level Estimated